Time;durP1;ratioP1;P1;durP2;ratioP2;P2;SDS_P1;SDS_P2;PMS_P1;PMS_P2;Temp;Humidity;BMP_temperature;BMP_pressure;BME280_temperature;BME280_humidity;BME280_pressure;Samples;Min_cycle;Max_cycle;Signal;HPM_P1;HPM_P2
2022/05/01 00:02:08;;;;;;;16.92;11.45;;;16.70;70.40;;;;;;5052062;28;20029;-73
2022/05/01 00:04:34;;;;;;;17.10;10.98;;;16.70;71.60;;;;;;5053110;28;20040;-77
2022/05/01 00:07:00;;;;;;;21.90;11.55;;;16.60;70.90;;;;;;5053539;28;20047;-73
2022/05/01 00:09:26;;;;;;;16.00;10.75;;;16.60;70.80;;;;;;5053523;28;20112;-73
2022/05/01 00:11:53;;;;;;;17.45;10.45;;;16.50;70.40;;;;;;5054416;28;20053;-73
2022/05/01 00:14:19;;;;;;;21.05;11.38;;;16.50;70.80;;;;;;5052847;28;20030;-74
2022/05/01 00:16:45;;;;;;;20.45;12.70;;;16.50;71.20;;;;;;5052975;28;20029;-75
2022/05/01 00:19:11;;;;;;;13.48;11.35;;;16.50;72.80;;;;;;5053214;28;20036;-75
2022/05/01 00:21:39;;;;;;;15.50;11.93;;;16.50;73.50;;;;;;5052975;28;20051;-73
2022/05/01 00:24:06;;;;;;;17.63;12.63;;;16.50;74.40;;;;;;5052901;28;20025;-73
2022/05/01 00:26:32;;;;;;;18.02;12.55;;;16.50;74.80;;;;;;5053105;28;20032;-73
2022/05/01 00:28:58;;;;;;;18.02;12.50;;;16.40;75.90;;;;;;5052832;28;20029;-74
2022/05/01 00:31:24;;;;;;;21.27;12.93;;;16.40;76.40;;;;;;5051668;28;20047;-74
2022/05/01 00:36:35;;;;;;;18.05;12.85;;;16.40;78.10;;;;;;5053126;28;20048;-74
2022/05/01 00:39:04;;;;;;;17.08;12.27;;;16.40;78.40;;;;;;5052822;28;20374;-75
2022/05/01 00:41:35;;;;;;;17.60;13.30;;;16.40;78.90;;;;;;5053026;28;20108;-74
2022/05/01 00:44:06;;;;;;;17.92;14.25;;;16.40;79.20;;;;;;5052767;28;20025;-74
2022/05/01 00:46:39;;;;;;;20.05;13.30;;;16.40;80.20;;;;;;5052689;28;20033;-75
2022/05/01 00:49:08;;;;;;;19.10;13.80;;;16.40;80.60;;;;;;5052948;28;20144;-75
2022/05/01 00:52:05;;;;;;;19.27;13.18;;;16.40;81.10;;;;;;5052780;28;20029;-74
2022/05/01 00:54:32;;;;;;;19.95;12.70;;;16.30;81.20;;;;;;5051911;28;20548;-74
2022/05/01 00:57:01;;;;;;;18.85;12.25;;;16.30;81.70;;;;;;5052525;28;20096;-74
2022/05/01 00:59:29;;;;;;;17.58;12.90;;;16.30;82.00;;;;;;5052645;28;20104;-74
2022/05/01 01:01:55;;;;;;;17.42;12.90;;;16.40;82.10;;;;;;5052549;28;20099;-75
2022/05/01 01:04:21;;;;;;;16.98;13.40;;;16.40;82.30;;;;;;5052315;28;20036;-74
2022/05/01 01:06:48;;;;;;;18.98;13.00;;;16.40;82.40;;;;;;5052334;28;20032;-74
2022/05/01 01:09:15;;;;;;;18.98;13.82;;;16.40;82.00;;;;;;5055455;28;20031;-74
2022/05/01 01:11:42;;;;;;;19.10;13.65;;;16.40;81.90;;;;;;5056222;28;20509;-74
2022/05/01 01:14:08;;;;;;;20.35;13.55;;;16.40;81.70;;;;;;5056250;28;20104;-74
2022/05/01 01:16:38;;;;;;;18.58;13.57;;;16.40;82.20;;;;;;5056074;28;20060;-73
2022/05/01 01:19:08;;;;;;;18.25;14.23;;;16.30;81.90;;;;;;5054924;28;20033;-74
2022/05/01 01:21:35;;;;;;;34.13;14.48;;;16.30;82.20;;;;;;5054865;28;20021;-74
2022/05/01 01:24:10;;;;;;;21.38;14.43;;;16.20;82.30;;;;;;5056015;28;20032;-74
2022/05/01 01:26:36;;;;;;;20.38;13.15;;;16.20;81.90;;;;;;5056126;28;20017;-74
2022/05/01 01:31:40;;;;;;;16.85;12.48;;;16.20;81.90;;;;;;5056054;28;20051;-73
2022/05/01 01:31:49;;;;;;;21.05;12.68;;;16.10;81.30;;;;;;5055627;28;20063;-73
2022/05/01 01:34:17;;;;;;;22.92;13.32;;;16.10;80.90;;;;;;5055857;28;20474;-74
2022/05/01 01:36:46;;;;;;;16.17;11.77;;;16.10;80.70;;;;;;5055675;28;20025;-74
2022/05/01 01:39:12;;;;;;;18.85;12.23;;;16.10;79.80;;;;;;5055971;28;20085;-74
2022/05/01 01:41:41;;;;;;;16.95;12.13;;;16.10;78.70;;;;;;5055785;28;20099;-73
2022/05/01 01:44:08;;;;;;;17.73;13.05;;;16.00;77.70;;;;;;5055602;28;20410;-74
2022/05/01 01:46:34;;;;;;;19.52;12.23;;;16.00;77.10;;;;;;5055612;28;20025;-76
2022/05/01 01:48:59;;;;;;;20.90;12.48;;;15.90;76.40;;;;;;5054233;28;20032;-75
2022/05/01 01:51:26;;;;;;;18.73;11.68;;;15.80;75.90;;;;;;5055678;28;20494;-73
2022/05/01 01:53:52;;;;;;;18.02;11.82;;;15.80;75.20;;;;;;5055149;28;20048;-73
2022/05/01 01:56:18;;;;;;;20.98;11.70;;;15.80;74.80;;;;;;5054276;28;20437;-74
2022/05/01 01:58:44;;;;;;;22.10;12.02;;;15.70;74.30;;;;;;5055328;28;20045;-75
2022/05/01 02:01:10;;;;;;;16.02;11.85;;;15.70;74.30;;;;;;5055411;28;20107;-75
2022/05/01 02:03:36;;;;;;;20.80;13.18;;;15.70;74.10;;;;;;5055180;28;20017;-73
2022/05/01 02:06:04;;;;;;;15.10;12.07;;;15.70;73.80;;;;;;5053964;28;20033;-73
2022/05/01 02:08:30;;;;;;;17.40;11.88;;;15.70;73.70;;;;;;5053911;28;20032;-73
2022/05/01 02:10:56;;;;;;;19.55;11.98;;;15.70;73.50;;;;;;5053682;28;20088;-75
2022/05/01 02:13:22;;;;;;;19.05;12.75;;;15.60;73.50;;;;;;5055062;28;20037;-75
2022/05/01 02:15:48;;;;;;;19.30;11.82;;;15.60;73.70;;;;;;5053665;28;20045;-74
2022/05/01 02:18:14;;;;;;;13.75;10.27;;;15.60;73.50;;;;;;5055027;28;20025;-73
2022/05/01 02:23:26;;;;;;;;;;;15.60;73.40;;;;;;5055793;28;20182;-73
2022/05/01 02:25:53;;;;;;;13.85;10.68;;;15.50;73.10;;;;;;5054842;28;20328;-75
2022/05/01 02:28:18;;;;;;;15.35;11.50;;;15.50;72.80;;;;;;5053551;28;20051;-75
2022/05/01 02:30:46;;;;;;;17.88;10.95;;;15.50;72.70;;;;;;5054977;28;20459;-74
2022/05/01 02:33:12;;;;;;;17.48;10.38;;;15.60;72.80;;;;;;5054711;28;20553;-74
2022/05/01 02:35:38;;;;;;;14.82;10.30;;;15.60;72.50;;;;;;5054680;28;20127;-75
2022/05/01 02:38:05;;;;;;;15.93;10.75;;;15.60;72.40;;;;;;5053219;28;20068;-73
2022/05/01 02:40:32;;;;;;;15.07;9.65;;;15.60;72.60;;;;;;5053211;28;20028;-73
2022/05/01 02:42:59;;;;;;;12.88;9.77;;;15.60;72.80;;;;;;5054599;28;20029;-72
2022/05/01 02:45:26;;;;;;;13.05;9.30;;;15.60;72.60;;;;;;5052833;28;20036;-74
2022/05/01 02:47:52;;;;;;;16.30;9.07;;;15.60;72.60;;;;;;5054247;28;20045;-74
2022/05/01 02:50:18;;;;;;;13.32;9.65;;;15.60;72.70;;;;;;5054561;28;20110;-74
2022/05/01 02:52:44;;;;;;;14.55;8.80;;;15.60;72.80;;;;;;5054216;28;20021;-74
2022/05/01 02:55:10;;;;;;;13.38;8.80;;;15.70;73.00;;;;;;5053931;28;20060;-74
2022/05/01 02:57:36;;;;;;;10.95;8.50;;;15.70;73.20;;;;;;5054102;28;20389;-73
2022/05/01 03:00:05;;;;;;;12.40;8.85;;;15.70;73.10;;;;;;5054295;28;20024;-73
2022/05/01 03:02:31;;;;;;;14.77;9.50;;;15.70;72.90;;;;;;5054679;28;20105;-74
2022/05/01 03:04:57;;;;;;;14.73;8.95;;;15.70;72.80;;;;;;5054651;28;20029;-73
2022/05/01 03:07:22;;;;;;;14.88;8.90;;;15.60;73.00;;;;;;5055068;28;20102;-73
2022/05/01 03:09:48;;;;;;;13.25;9.40;;;15.60;72.80;;;;;;5056144;28;20136;-74
2022/05/01 03:12:14;;;;;;;13.18;9.18;;;15.60;72.70;;;;;;5053562;28;20044;-76
2022/05/01 03:14:40;;;;;;;14.05;9.45;;;15.60;72.80;;;;;;5054082;28;20063;-75
2022/05/01 03:17:06;;;;;;;13.13;9.57;;;15.60;72.40;;;;;;5053986;28;20024;-74
2022/05/01 03:22:17;;;;;;;;;;;15.60;72.80;;;;;;5054569;28;20036;-74
2022/05/01 03:24:43;;;;;;;15.40;9.98;;;15.50;73.50;;;;;;5053953;28;19909;-75
2022/05/01 03:27:10;;;;;;;18.13;10.82;;;15.50;72.60;;;;;;5052529;28;20021;-76
2022/05/01 03:29:37;;;;;;;14.27;10.68;;;15.50;72.10;;;;;;5053805;28;20033;-74
2022/05/01 03:32:07;;;;;;;14.30;10.27;;;15.50;72.00;;;;;;5052671;28;20052;-76
2022/05/01 03:34:37;;;;;;;15.07;10.52;;;15.50;72.10;;;;;;5053661;28;20091;-73
2022/05/01 03:37:06;;;;;;;16.00;10.02;;;15.50;71.70;;;;;;5054191;28;20481;-74
2022/05/01 03:39:35;;;;;;;15.10;9.20;;;15.50;71.30;;;;;;5053225;28;20489;-75
2022/05/01 03:42:01;;;;;;;16.80;9.23;;;15.50;71.20;;;;;;5054265;28;20056;-75
2022/05/01 03:44:28;;;;;;;15.98;8.88;;;15.50;69.70;;;;;;5053462;28;20032;-74
2022/05/01 03:46:53;;;;;;;16.90;8.68;;;15.50;68.60;;;;;;5053480;28;20029;-75
2022/05/01 03:49:19;;;;;;;13.35;8.77;;;15.40;68.80;;;;;;5053531;28;20075;-73
2022/05/01 03:51:46;;;;;;;13.75;8.38;;;15.50;68.30;;;;;;5053731;28;20028;-74
2022/05/01 03:54:12;;;;;;;13.93;7.97;;;15.40;68.10;;;;;;5053219;28;20225;-75
2022/05/01 03:56:38;;;;;;;12.80;8.55;;;15.40;67.70;;;;;;5053251;28;20021;-73
2022/05/01 03:59:04;;;;;;;18.85;8.85;;;15.40;67.20;;;;;;5053347;28;20104;-75
2022/05/01 04:01:30;;;;;;;16.35;8.70;;;15.40;67.40;;;;;;5053106;28;20036;-73
2022/05/01 04:03:56;;;;;;;14.52;8.52;;;15.40;66.70;;;;;;5053159;28;20492;-75
2022/05/01 04:06:23;;;;;;;12.98;8.23;;;15.50;66.60;;;;;;5053123;28;20017;-75
2022/05/01 04:08:49;;;;;;;14.73;9.07;;;15.50;66.20;;;;;;5053162;28;20043;-74
2022/05/01 04:11:15;;;;;;;15.38;8.02;;;15.50;65.80;;;;;;5052021;28;20029;-75
2022/05/01 04:13:43;;;;;;;14.05;9.38;;;15.40;65.90;;;;;;5053111;28;20040;-73
2022/05/01 04:16:10;;;;;;;16.67;9.00;;;15.40;65.60;;;;;;5053088;28;20479;-73
2022/05/01 04:18:37;;;;;;;15.25;8.75;;;15.30;65.20;;;;;;5051791;28;20044;-74
2022/05/01 04:21:02;;;;;;;19.08;9.80;;;15.20;64.90;;;;;;5051691;28;20386;-74
2022/05/01 04:23:28;;;;;;;13.98;8.85;;;15.20;64.80;;;;;;5053122;28;20025;-75
2022/05/01 04:25:55;;;;;;;12.77;9.32;;;15.10;64.50;;;;;;5051806;28;20478;-74
2022/05/01 04:28:21;;;;;;;15.57;9.07;;;15.00;64.50;;;;;;5052938;28;20485;-76
2022/05/01 04:30:50;;;;;;;13.80;8.85;;;15.00;64.30;;;;;;5051699;28;20083;-74
2022/05/01 04:33:17;;;;;;;19.40;9.63;;;14.90;64.80;;;;;;5052203;28;20386;-74
2022/05/01 04:35:44;;;;;;;14.52;9.13;;;15.00;64.50;;;;;;5052635;28;20036;-73
2022/05/01 04:38:14;;;;;;;15.82;8.80;;;15.00;64.80;;;;;;5052917;28;20021;-75
2022/05/01 04:40:48;;;;;;;19.48;9.00;;;15.00;65.00;;;;;;5051477;28;20029;-73
2022/05/01 04:43:16;;;;;;;13.70;8.43;;;15.10;65.10;;;;;;5054023;28;20021;-74
2022/05/01 04:45:43;;;;;;;18.90;9.38;;;15.00;64.70;;;;;;5056417;28;20036;-74
2022/05/01 04:48:11;;;;;;;20.55;10.00;;;15.00;65.00;;;;;;5055380;28;20374;-74
2022/05/01 04:50:37;;;;;;;14.90;9.10;;;14.90;65.80;;;;;;5055208;28;20474;-74
2022/05/01 04:53:06;;;;;;;13.60;8.82;;;14.90;65.20;;;;;;5056449;28;20028;-76
2022/05/01 04:55:32;;;;;;;14.30;8.98;;;15.00;64.90;;;;;;5054918;28;20057;-73
2022/05/01 04:57:58;;;;;;;15.85;8.82;;;15.10;64.70;;;;;;5055086;28;20032;-76
2022/05/01 05:00:24;;;;;;;14.73;8.27;;;15.10;64.30;;;;;;5055349;28;20037;-74
2022/05/01 05:02:52;;;;;;;12.05;8.45;;;15.10;64.10;;;;;;5056387;28;20045;-74
2022/05/01 05:05:19;;;;;;;13.70;8.63;;;15.10;63.80;;;;;;5056242;28;20033;-75
2022/05/01 05:07:45;;;;;;;13.43;8.90;;;15.10;64.20;;;;;;5056423;28;20156;-75
2022/05/01 05:10:12;;;;;;;13.18;8.80;;;15.00;64.00;;;;;;5056302;28;20529;-74
2022/05/01 05:12:42;;;;;;;16.30;9.00;;;15.10;64.60;;;;;;5055030;28;20021;-76
2022/05/01 05:15:09;;;;;;;16.27;8.32;;;15.30;64.30;;;;;;5056137;28;20175;-74
2022/05/01 05:17:36;;;;;;;13.18;7.80;;;15.50;64.00;;;;;;5056137;28;20461;-75
2022/05/01 05:20:05;;;;;;;13.57;7.28;;;15.60;63.30;;;;;;5056029;28;20111;-74
2022/05/01 05:22:31;;;;;;;10.52;8.05;;;15.70;62.10;;;;;;5056100;28;20027;-74
2022/05/01 05:24:57;;;;;;;11.10;7.22;;;15.80;61.70;;;;;;5054579;28;20033;-74
2022/05/01 05:27:25;;;;;;;13.02;7.80;;;15.80;61.30;;;;;;5054739;28;20308;-74
2022/05/01 05:29:58;;;;;;;13.93;7.78;;;15.80;60.90;;;;;;5055743;28;20017;-76
2022/05/01 05:32:25;;;;;;;10.35;7.18;;;15.90;60.90;;;;;;5055960;28;20027;-73
2022/05/01 05:34:51;;;;;;;11.35;7.63;;;16.00;60.80;;;;;;5055792;28;20029;-74
2022/05/01 05:37:18;;;;;;;13.27;7.97;;;16.00;60.60;;;;;;5056390;28;20100;-75
2022/05/01 05:39:45;;;;;;;10.40;7.13;;;16.10;60.80;;;;;;5056113;28;20031;-75
2022/05/01 05:42:11;;;;;;;14.57;7.65;;;16.10;60.50;;;;;;5054766;28;20033;-75
2022/05/01 05:44:38;;;;;;;12.23;7.55;;;16.10;60.40;;;;;;5054409;28;20025;-74
2022/05/01 05:47:04;;;;;;;11.50;7.40;;;16.30;60.30;;;;;;5055775;28;20386;-75
2022/05/01 05:49:34;;;;;;;11.93;7.07;;;16.30;59.80;;;;;;5055528;28;20079;-74
2022/05/01 05:52:01;;;;;;;15.77;7.60;;;16.50;59.60;;;;;;5054454;28;20043;-76
2022/05/01 05:54:27;;;;;;;15.27;7.75;;;16.80;59.20;;;;;;5054273;28;20464;-74
2022/05/01 05:56:53;;;;;;;11.55;7.07;;;16.80;58.70;;;;;;5053977;28;20124;-76
2022/05/01 05:59:19;;;;;;;11.15;7.47;;;16.90;58.70;;;;;;5053999;28;20029;-75
2022/05/01 06:01:44;;;;;;;12.60;8.20;;;16.90;58.50;;;;;;5055479;28;20065;-74
2022/05/01 06:04:10;;;;;;;17.10;8.98;;;16.90;58.80;;;;;;5055202;28;20035;-75
2022/05/01 06:06:36;;;;;;;11.10;7.63;;;16.90;58.70;;;;;;5055304;28;20029;-75
2022/05/01 06:09:02;;;;;;;13.88;7.50;;;16.90;58.30;;;;;;5055974;28;20104;-75
2022/05/01 06:11:29;;;;;;;12.00;7.50;;;16.90;58.50;;;;;;5055386;28;20039;-74
2022/05/01 06:13:55;;;;;;;13.88;7.65;;;16.90;58.50;;;;;;5055919;28;20021;-75
2022/05/01 06:16:20;;;;;;;10.40;7.45;;;17.00;58.50;;;;;;5055105;28;20056;-76
2022/05/01 06:18:46;;;;;;;10.95;8.45;;;16.80;58.50;;;;;;5055098;28;20063;-74
2022/05/01 06:21:13;;;;;;;12.32;8.55;;;16.80;59.10;;;;;;5053644;28;20087;-76
2022/05/01 06:23:40;;;;;;;13.93;8.32;;;16.70;59.30;;;;;;5053909;28;20029;-76
2022/05/01 06:26:07;;;;;;;11.40;8.07;;;16.60;59.40;;;;;;5054770;28;20024;-74
2022/05/01 06:28:33;;;;;;;12.57;8.20;;;16.50;59.70;;;;;;5054948;28;20112;-75
2022/05/01 06:31:00;;;;;;;13.98;8.18;;;16.60;59.80;;;;;;5054986;28;20036;-75
2022/05/01 06:33:28;;;;;;;12.10;8.20;;;16.70;59.60;;;;;;5054906;28;20024;-75
2022/05/01 06:35:54;;;;;;;12.52;8.05;;;16.80;59.70;;;;;;5054676;28;20036;-75
2022/05/01 06:38:21;;;;;;;12.63;8.50;;;16.70;59.70;;;;;;5036677;28;20032;-74
2022/05/01 06:40:47;;;;;;;12.48;8.25;;;16.70;60.30;;;;;;5053408;28;20025;-74
2022/05/01 06:43:15;;;;;;;12.15;7.45;;;16.70;60.10;;;;;;5054719;28;20063;-74
2022/05/01 06:45:41;;;;;;;13.95;8.20;;;16.70;60.20;;;;;;5054643;28;20132;-76
2022/05/01 06:48:10;;;;;;;12.57;7.35;;;16.70;60.00;;;;;;5053243;28;20029;-75
2022/05/01 06:50:38;;;;;;;11.52;8.07;;;16.70;60.30;;;;;;5053141;28;20139;-75
2022/05/01 06:53:05;;;;;;;12.32;8.02;;;16.70;60.30;;;;;;5053182;28;20032;-75
2022/05/01 06:55:31;;;;;;;13.30;8.02;;;16.70;60.10;;;;;;5053713;28;20045;-76
2022/05/01 06:57:57;;;;;;;12.18;8.15;;;16.70;60.20;;;;;;5054147;28;20024;-74
2022/05/01 07:00:23;;;;;;;14.63;8.40;;;16.80;60.00;;;;;;5054340;28;20032;-75
2022/05/01 07:02:51;;;;;;;11.43;8.30;;;16.80;59.70;;;;;;5053010;28;20029;-74
2022/05/01 07:05:19;;;;;;;13.50;8.80;;;16.90;60.00;;;;;;5053393;28;20100;-75
2022/05/01 07:07:45;;;;;;;11.15;8.02;;;16.90;60.00;;;;;;5053732;28;20028;-75
2022/05/01 07:10:11;;;;;;;15.68;8.38;;;16.90;59.80;;;;;;5054076;28;20036;-73
2022/05/01 07:12:39;;;;;;;15.40;7.38;;;17.00;60.30;;;;;;5052678;28;20025;-76
2022/05/01 07:15:05;;;;;;;14.90;8.65;;;17.00;59.40;;;;;;5053667;28;20091;-75
2022/05/01 07:17:31;;;;;;;11.30;8.30;;;17.10;59.70;;;;;;5053852;28;20021;-75
2022/05/01 07:19:57;;;;;;;11.57;8.00;;;17.20;59.50;;;;;;5053238;28;20029;-75
2022/05/01 07:22:23;;;;;;;11.75;8.32;;;17.20;58.80;;;;;;5053780;28;20020;-75
2022/05/01 07:24:49;;;;;;;12.40;7.55;;;17.20;59.10;;;;;;5053835;28;20096;-77
2022/05/01 07:27:15;;;;;;;14.25;7.95;;;17.30;58.20;;;;;;5053408;28;20013;-76
2022/05/01 07:29:41;;;;;;;11.38;7.90;;;17.40;58.80;;;;;;5053451;28;20040;-75
2022/05/01 07:32:07;;;;;;;13.45;8.02;;;17.50;59.00;;;;;;5053456;28;20021;-74
2022/05/01 07:34:33;;;;;;;12.55;8.13;;;17.60;58.30;;;;;;5053896;28;20040;-77
2022/05/01 07:36:59;;;;;;;10.20;7.03;;;17.80;58.10;;;;;;5053721;28;20330;-78
2022/05/01 07:39:25;;;;;;;12.93;7.70;;;17.90;56.80;;;;;;5053501;28;20522;-76
2022/05/01 07:41:50;;;;;;;13.75;7.15;;;18.00;56.70;;;;;;5052215;28;20056;-75
2022/05/01 07:44:16;;;;;;;16.42;8.73;;;18.00;55.90;;;;;;5053422;28;20021;-76
2022/05/01 07:46:45;;;;;;;11.63;7.45;;;18.00;55.70;;;;;;5053342;28;20183;-77
2022/05/01 07:49:11;;;;;;;10.27;7.00;;;18.10;55.10;;;;;;5035460;28;20079;-74
2022/05/01 07:51:37;;;;;;;11.15;7.32;;;18.10;55.30;;;;;;5053468;28;20396;-74
2022/05/01 07:54:05;;;;;;;15.50;9.02;;;18.10;55.70;;;;;;5034875;28;20071;-75
2022/05/01 07:56:33;;;;;;;15.60;9.02;;;18.10;55.60;;;;;;5051872;28;20473;-78
2022/05/01 07:58:59;;;;;;;11.73;6.90;;;18.10;55.50;;;;;;5053283;28;20013;-74
2022/05/01 08:01:28;;;;;;;10.68;7.30;;;18.00;55.40;;;;;;5054154;28;20083;-73
2022/05/01 08:06:38;;;;;;;16.00;9.52;;;17.90;55.30;;;;;;5052691;28;20043;-75
2022/05/01 08:09:04;;;;;;;13.90;7.40;;;17.80;55.70;;;;;;5052963;28;20108;-78
2022/05/01 08:11:31;;;;;;;12.77;6.82;;;17.80;55.80;;;;;;5051901;28;20036;-77
2022/05/01 08:13:57;;;;;;;13.48;7.03;;;17.70;55.50;;;;;;5052553;28;20104;-75
2022/05/01 08:16:23;;;;;;;12.10;6.45;;;17.50;55.40;;;;;;5052513;28;20075;-75
2022/05/01 08:21:35;;;;;;;12.75;6.90;;;17.40;55.00;;;;;;5053398;28;20052;-74
2022/05/01 08:24:02;;;;;;;16.92;7.30;;;17.40;55.90;;;;;;5052739;28;20021;-78
2022/05/01 08:26:31;;;;;;;10.98;6.78;;;17.40;56.30;;;;;;5052800;28;20390;-74
2022/05/01 08:28:57;;;;;;;12.10;7.78;;;17.40;55.90;;;;;;5052687;28;20036;-75
2022/05/01 08:31:24;;;;;;;13.63;7.80;;;17.50;56.30;;;;;;5052777;28;20039;-76
2022/05/01 08:33:49;;;;;;;10.93;7.07;;;17.50;56.60;;;;;;5052632;28;20071;-75
2022/05/01 08:36:15;;;;;;;10.60;6.45;;;17.50;56.80;;;;;;5052862;28;20048;-77
2022/05/01 08:38:42;;;;;;;11.57;6.65;;;17.50;56.80;;;;;;5052842;28;20027;-77
2022/05/01 08:41:09;;;;;;;10.88;6.85;;;17.50;56.50;;;;;;5052533;28;20059;-77
2022/05/01 08:43:35;;;;;;;13.52;7.38;;;17.50;56.40;;;;;;5052421;28;20452;-76
2022/05/01 08:46:32;;;;;;;11.18;7.38;;;17.60;56.70;;;;;;5051170;28;20059;-75
2022/05/01 08:49:09;;;;;;;9.90;6.70;;;17.70;57.30;;;;;;5052578;28;20021;-77
2022/05/01 08:51:41;;;;;;;12.98;8.32;;;17.70;55.90;;;;;;5052639;28;20105;-74
2022/05/01 08:54:11;;;;;;;17.08;9.88;;;17.80;56.50;;;;;;5052058;28;20053;-75
2022/05/01 08:56:41;;;;;;;15.98;10.52;;;17.80;57.80;;;;;;5052535;28;20021;-75
2022/05/01 08:59:11;;;;;;;16.35;8.75;;;17.90;58.50;;;;;;5052246;28;20532;-74
2022/05/01 09:01:39;;;;;;;24.33;8.60;;;17.90;60.10;;;;;;5051077;28;20082;-75
2022/05/01 09:04:06;;;;;;;15.95;8.07;;;17.90;61.30;;;;;;5052320;28;20017;-76
2022/05/01 09:06:37;;;;;;;13.55;8.23;;;18.00;61.10;;;;;;5052447;28;20032;-75
2022/05/01 09:09:15;;;;;;;15.25;9.38;;;18.20;61.50;;;;;;5052232;28;20086;-74
2022/05/01 09:14:26;;;;;;;15.15;9.63;;;18.50;62.30;;;;;;5051928;28;20055;-74
2022/05/01 09:17:13;;;;;;;17.98;10.30;;;18.70;63.20;;;;;;5052672;28;20032;-76
2022/05/01 09:19:39;;;;;;;13.07;9.98;;;18.80;63.50;;;;;;5052269;28;20035;-75
2022/05/01 09:22:05;;;;;;;13.48;10.07;;;18.90;63.40;;;;;;5052166;28;20032;-74
2022/05/01 09:24:31;;;;;;;13.05;9.77;;;18.90;63.30;;;;;;5052261;28;20021;-74
2022/05/01 09:26:58;;;;;;;12.57;9.25;;;18.70;63.60;;;;;;5052220;28;20025;-75
2022/05/01 09:29:26;;;;;;;15.60;10.93;;;18.60;63.80;;;;;;5050770;28;20064;-77
2022/05/01 09:31:55;;;;;;;13.40;9.85;;;18.40;64.00;;;;;;5055911;28;20021;-74
2022/05/01 09:34:29;;;;;;;12.45;8.95;;;18.30;64.00;;;;;;5055537;28;20029;-74
2022/05/01 09:36:57;;;;;;;15.45;9.32;;;18.30;63.80;;;;;;5055575;28;20029;-75
2022/05/01 09:39:25;;;;;;;13.13;9.07;;;18.30;63.80;;;;;;5055443;28;20086;-76
2022/05/01 09:41:52;;;;;;;14.18;8.50;;;18.40;62.90;;;;;;5055807;28;20029;-74
2022/05/01 09:44:21;;;;;;;11.05;7.63;;;18.50;63.00;;;;;;5055450;28;20029;-74
2022/05/01 09:46:49;;;;;;;12.57;8.05;;;18.60;62.20;;;;;;5055502;28;20040;-75
2022/05/01 09:49:16;;;;;;;13.60;8.65;;;18.60;61.30;;;;;;5055473;28;20098;-74
2022/05/01 09:52:00;;;;;;;12.10;7.55;;;18.70;60.90;;;;;;5055538;28;20036;-77
2022/05/01 09:54:26;;;;;;;11.55;8.55;;;18.80;60.10;;;;;;5054967;28;20049;-75
2022/05/01 09:56:59;;;;;;;11.45;8.00;;;18.80;59.70;;;;;;5055171;28;20033;-75
2022/05/01 09:59:27;;;;;;;18.27;12.38;;;18.90;59.50;;;;;;5055233;28;20033;-74
2022/05/01 10:02:04;;;;;;;9.75;7.43;;;18.90;59.70;;;;;;5053670;28;20035;-75
2022/05/01 10:04:32;;;;;;;12.43;7.65;;;18.80;58.60;;;;;;5055157;28;20021;-74
2022/05/01 10:07:00;;;;;;;13.20;8.25;;;18.90;58.90;;;;;;5054960;28;20420;-75
2022/05/01 10:09:31;;;;;;;13.30;7.40;;;18.90;58.60;;;;;;5055123;28;20499;-77
2022/05/01 10:11:58;;;;;;;11.30;7.63;;;19.10;58.10;;;;;;5054925;28;20019;-75
2022/05/01 10:14:26;;;;;;;12.07;8.27;;;19.30;58.10;;;;;;5054846;28;20443;-76
2022/05/01 10:16:54;;;;;;;10.85;7.78;;;19.40;57.40;;;;;;5054930;28;20119;-75
2022/05/01 10:19:21;;;;;;;11.10;7.97;;;19.70;56.60;;;;;;5054596;28;20079;-78
2022/05/01 10:21:49;;;;;;;15.02;6.68;;;19.90;56.60;;;;;;5054892;28;20029;-75
2022/05/01 10:24:19;;;;;;;8.52;6.05;;;20.10;55.50;;;;;;5054930;28;20021;-78
2022/05/01 10:27:42;;;;;;;10.55;6.43;;;20.30;55.00;;;;;;5055123;28;20033;-80
2022/05/01 10:36:43;;;;;;;12.10;4.93;;;20.20;51.40;;;;;;5074991;22;20506;-79
2022/05/01 10:39:10;;;;;;;8.32;5.07;;;20.30;50.70;;;;;;5034684;28;20564;-76
2022/05/01 10:41:46;;;;;;;10.75;4.22;;;20.30;51.10;;;;;;5032973;28;20032;-79
2022/05/01 10:44:30;;;;;;;8.63;4.60;;;20.40;50.70;;;;;;5033580;28;20095;-78
2022/05/01 10:47:06;;;;;;;6.88;3.65;;;20.40;50.00;;;;;;5034757;28;20079;-77
2022/05/01 10:49:39;;;;;;;11.35;5.50;;;20.50;49.20;;;;;;5034421;28;20475;-78
2022/05/01 10:52:28;;;;;;;44.30;35.20;;;20.50;49.00;;;;;;5049664;28;20503;-77
2022/05/01 10:55:05;;;;;;;9.60;7.03;;;20.50;47.70;;;;;;5032839;28;20037;-78
2022/05/01 10:57:33;;;;;;;8.82;4.65;;;20.50;47.40;;;;;;5033041;28;20025;-75
2022/05/01 11:00:12;;;;;;;8.95;4.72;;;20.50;47.20;;;;;;5034251;28;20052;-77
2022/05/01 11:02:45;;;;;;;7.57;5.00;;;20.50;47.10;;;;;;5034522;28;20459;-77
2022/05/01 11:05:32;;;;;;;7.70;4.55;;;20.50;47.80;;;;;;5034117;28;20104;-77
2022/05/01 11:08:00;;;;;;;7.75;4.68;;;20.60;47.50;;;;;;5033789;28;20022;-77
2022/05/01 11:10:29;;;;;;;7.43;4.90;;;20.80;47.20;;;;;;5033994;28;20017;-76
2022/05/01 11:12:56;;;;;;;7.47;5.13;;;20.80;47.10;;;;;;5034137;28;20030;-81
2022/05/01 11:15:27;;;;;;;10.57;6.30;;;20.90;47.60;;;;;;5033361;28;20474;-75
2022/05/01 11:17:56;;;;;;;10.07;5.72;;;21.00;47.00;;;;;;5034144;28;20063;-79
2022/05/01 11:20:26;;;;;;;7.95;5.55;;;21.00;46.90;;;;;;5034062;28;20025;-77
2022/05/01 11:22:54;;;;;;;10.50;5.03;;;21.10;46.10;;;;;;5033908;28;20432;-78
2022/05/01 11:25:40;;;;;;;6.93;4.50;;;21.20;45.50;;;;;;5034174;28;20030;-77
2022/05/01 11:28:27;;;;;;;9.75;4.45;;;21.20;44.90;;;;;;5034254;28;20466;-85
2022/05/01 11:30:53;;;;;;;9.02;4.40;;;21.20;44.60;;;;;;5035051;28;20056;-77
2022/05/01 11:33:20;;;;;;;15.27;7.93;;;21.10;45.00;;;;;;5036196;28;20025;-78
2022/05/01 11:35:57;;;;;;;19.77;12.10;;;21.10;44.70;;;;;;5036604;28;20045;-75
2022/05/01 11:38:32;;;;;;;9.75;5.40;;;21.10;44.20;;;;;;5034811;28;20032;-78
2022/05/01 11:41:02;;;;;;;8.85;4.95;;;21.20;44.80;;;;;;5034234;28;20090;-76
2022/05/01 11:43:29;;;;;;;10.65;4.20;;;21.20;44.60;;;;;;5033770;28;20041;-77
2022/05/01 11:46:01;;;;;;;12.48;4.85;;;21.20;44.50;;;;;;5033565;28;20026;-77
2022/05/01 11:48:28;;;;;;;9.60;4.25;;;21.20;44.30;;;;;;5048953;28;20030;-77
2022/05/01 11:50:58;;;;;;;8.82;4.43;;;21.30;44.40;;;;;;5033775;28;20029;-75
2022/05/01 11:53:29;;;;;;;10.70;4.88;;;21.30;44.20;;;;;;5033277;28;20032;-80
2022/05/01 12:04:41;;;;;;;9.68;5.07;;;21.40;43.20;;;;;;5034473;28;20091;-78
2022/05/01 12:07:15;;;;;;;7.82;4.32;;;21.50;43.00;;;;;;5031885;28;20075;-80
2022/05/01 12:09:43;;;;;;;8.27;4.38;;;21.60;42.30;;;;;;5033341;28;20028;-77
2022/05/01 12:12:13;;;;;;;10.32;4.47;;;21.60;42.00;;;;;;5033655;28;20022;-77
2022/05/01 12:14:41;;;;;;;8.82;4.70;;;21.70;42.30;;;;;;5033384;28;20029;-80
2022/05/01 12:17:15;;;;;;;9.30;4.25;;;21.80;42.00;;;;;;5033725;28;20029;-76
2022/05/01 12:19:42;;;;;;;8.63;4.60;;;21.90;41.80;;;;;;5033770;28;20112;-78
2022/05/01 12:22:10;;;;;;;6.47;4.43;;;22.00;41.40;;;;;;5033343;28;20104;-78
2022/05/01 12:24:37;;;;;;;11.02;5.05;;;22.00;41.10;;;;;;5048485;28;20033;-76
2022/05/01 12:27:04;;;;;;;10.45;5.13;;;22.20;41.40;;;;;;5033003;28;20093;-75
2022/05/01 12:29:32;;;;;;;10.07;5.13;;;22.30;40.90;;;;;;5032951;28;20029;-74
2022/05/01 12:32:06;;;;;;;8.43;4.40;;;22.30;40.30;;;;;;5033510;28;20026;-75
2022/05/01 12:34:34;;;;;;;13.00;5.28;;;22.30;41.00;;;;;;5033262;28;20112;-78
2022/05/01 12:37:04;;;;;;;10.77;5.68;;;22.50;40.50;;;;;;5034134;28;20026;-81
2022/05/01 12:39:30;;;;;;;8.68;5.20;;;22.70;40.10;;;;;;5033630;28;20467;-79
2022/05/01 12:45:08;;;;;;;14.57;8.95;;;22.80;40.00;;;;;;5032912;28;20584;-76
2022/05/01 12:47:40;;;;;;;10.05;6.95;;;22.90;40.40;;;;;;5033198;28;20025;-76
2022/05/01 12:50:11;;;;;;;9.02;4.85;;;23.10;40.20;;;;;;5034051;28;20032;-78
2022/05/01 12:52:41;;;;;;;6.72;3.28;;;23.10;39.30;;;;;;5033110;28;20033;-75
2022/05/01 12:55:18;;;;;;;5.30;2.80;;;23.10;38.20;;;;;;5032312;28;20498;-77
2022/05/01 12:57:58;;;;;;;6.38;2.90;;;23.10;37.30;;;;;;5032401;28;20037;-76
2022/05/01 13:00:45;;;;;;;7.63;3.90;;;22.90;36.90;;;;;;5032441;28;20036;-74
2022/05/01 13:03:36;;;;;;;9.98;5.97;;;22.90;36.60;;;;;;5032306;28;20033;-79
2022/05/01 13:06:09;;;;;;;8.40;3.78;;;22.90;37.30;;;;;;5037343;28;20037;-75
2022/05/01 13:08:36;;;;;;;7.75;3.90;;;23.00;36.90;;;;;;5036737;28;20022;-78
2022/05/01 13:11:28;;;;;;;10.88;4.50;;;22.90;37.20;;;;;;5051558;28;20028;-79
2022/05/01 13:14:23;;;;;;;9.32;3.92;;;23.00;37.70;;;;;;5036261;28;20109;-78
2022/05/01 13:16:49;;;;;;;6.43;3.50;;;23.20;37.80;;;;;;5036108;28;20042;-75
2022/05/01 13:19:20;;;;;;;7.78;3.60;;;23.40;37.80;;;;;;5036252;28;20540;-76